Latest Weather Observations for Rowley Shoals

IDW60801

Issued at 4:43 pm WST Tuesday 22 October 2019 (issued every 10 minutes, with the page automatically refreshed every 10 minutes)

About weather observations | Map of weather stations | Latest weather observations for WA | Other Formats
Station Details ID: 200713 Name: ROWLEY SHOALS Lat: -17.52 Lon: 118.95 Height: 0.0 m
Data from the previous 72 hours. | See also: Recent months at Rowley Shoals
Date/Time
WST
Temp
°C
App
Temp
°C
Dew
Point
°C
Rel
Hum
%
Delta-T
°C
Wind Press
QNH
hPa
Press
MSL
hPa
Rain since
9am
mm
Dir  Spd
km/h
Gust
km/h
Spd
kts
Gust
kts
22/04:30pm 28.2 - - - - WSW 24 26 13 14 1008.9 1008.9 -
22/04:00pm 28.5 - - - - WSW 22 24 12 13 1009.1 1009.1 -
22/03:30pm 28.2 - - - - SW 22 26 12 14 1009.2 1009.2 -
22/03:00pm 28.5 - - - - SW 20 24 11 13 1009.3 1009.3 -
22/02:30pm 28.0 - - - - SW 20 24 11 13 1009.5 1009.5 -
22/02:00pm 28.3 - - - - SW 24 26 13 14 1009.7 1009.7 -
22/01:30pm 28.7 - - - - WSW 22 24 12 13 1010.1 1010.1 -
22/01:00pm 27.9 - - - - SW 22 26 12 14 1010.4 1010.4 -
22/12:30pm 28.5 - - - - WSW 22 24 12 13 1010.8 1010.8 -
22/12:00pm 28.3 - - - - WSW 22 26 12 14 1011.1 1011.1 -
22/11:30am 28.7 - - - - WSW 24 26 13 14 1011.4 1011.4 -
22/11:00am 28.4 - - - - WSW 20 24 11 13 1011.8 1011.8 -
22/10:30am 28.6 - - - - WSW 20 22 11 12 1012.3 1012.3 -
22/10:00am 28.2 - - - - WSW 17 19 9 10 1012.5 1012.5 -
22/09:30am 28.0 - - - - WSW 13 17 7 9 1012.7 1012.7 -
22/09:00am 28.0 - - - - WSW 11 13 6 7 1012.8 1012.8 -
22/08:30am 27.6 - - - - WSW 7 9 4 5 1012.8 1012.8 -
22/08:00am 27.7 - - - - SSW 7 9 4 5 1012.8 1012.8 -
22/07:30am 27.9 - - - - S 9 11 5 6 1012.9 1012.9 -
22/07:00am 27.4 - - - - SW 11 13 6 7 1012.2 1012.2 -
22/06:30am 27.6 - - - - SW 9 15 5 8 1012.0 1012.0 -
22/06:00am 28.0 - - - - S 11 15 6 8 1011.7 1011.7 -
22/05:30am 27.6 - - - - S 11 20 6 11 1011.5 1011.5 -
22/05:00am 27.5 - - - - ESE 13 37 7 20 1011.2 1011.2 -
22/04:30am 27.8 - - - - NE 9 9 5 5 1010.4 1010.4 -
22/04:00am 27.9 - - - - NE 7 9 4 5 1010.2 1010.2 -
22/03:30am 27.9 - - - - NE 11 11 6 6 1010.2 1010.2 -
22/03:00am 28.0 - - - - NE 13 13 7 7 1010.3 1010.3 -
22/02:30am 27.9 - - - - ENE 11 13 6 7 1010.6 1010.6 -
22/02:00am 28.1 - - - - ENE 13 13 7 7 1011.0 1011.0 -
22/01:30am 28.3 - - - - E 17 19 9 10 1011.3 1011.3 -
22/01:00am 28.4 - - - - ESE 19 20 10 11 1011.6 1011.6 -
22/12:30am 28.1 - - - - SE 19 20 10 11 1012.3 1012.3 -
22/12:00am 28.4 - - - - SE 20 24 11 13 1012.4 1012.4 -
 
Date/Time
WST
Temp
°C
App
Temp
°C
Dew
Point
°C
Rel
Hum
%
Delta-T
°C
Wind Press
QNH
hPa
Press
MSL
hPa
Rain since
9am
mm
Dir  Spd
km/h
Gust
km/h
Spd
kts
Gust
kts
21/11:30pm 29.4 - - - - SE 24 28 13 15 1012.7 1012.7 -
21/11:00pm 28.7 - - - - SSE 33 44 18 24 1013.1 1013.1 -
21/10:43pm 28.6 - - - - S 32 50 17 27 1012.6 1012.6 -
21/10:34pm 27.4 - - - - S 26 48 14 26 1012.7 1012.7 -
21/10:30pm 27.5 - - - - S 13 30 7 16 1012.5 1012.5 -
21/10:00pm 27.4 - - - - SSE 11 13 6 7 1012.3 1012.3 -
21/09:30pm 27.5 - - - - SE 11 13 6 7 1012.1 1012.1 -
21/09:00pm 27.5 - - - - SSE 11 13 6 7 1012.0 1012.0 -
21/08:30pm 27.4 - - - - S 7 9 4 5 1011.7 1011.7 -
21/08:00pm 27.7 - - - - S 9 11 5 6 1011.3 1011.3 -
21/07:30pm 27.8 - - - - S 11 13 6 7 1010.9 1010.9 -
21/07:00pm 28.0 - - - - SSW 15 19 8 10 1010.5 1010.5 -
21/06:30pm 28.0 - - - - SSW 17 20 9 11 1010.1 1010.1 -
21/06:00pm 28.1 - - - - SSW 19 20 10 11 1009.7 1009.7 -
21/05:30pm 28.4 - - - - SSW 17 19 9 10 1009.4 1009.4 -
21/05:00pm 28.3 - - - - SSW 15 19 8 10 1009.2 1009.2 -
21/04:30pm 28.2 - - - - SSW 13 15 7 8 1009.2 1009.2 -
21/04:00pm 29.0 - - - - S 9 13 5 7 1009.2 1009.2 -
21/03:30pm 28.7 - - - - SE 13 15 7 8 1009.5 1009.5 -
21/03:00pm 28.6 - - - - SE 13 17 7 9 1009.7 1009.7 -
21/02:30pm 28.5 - - - - ESE 17 19 9 10 1010.1 1010.1 -
21/02:00pm 28.6 - - - - ESE 19 20 10 11 1010.3 1010.3 -
21/01:30pm 28.5 - - - - ESE 20 24 11 13 1010.7 1010.7 -
21/01:00pm 28.5 - - - - ESE 24 30 13 16 1011.1 1011.1 -
21/12:30pm 28.7 - - - - E 28 32 15 17 1011.5 1011.5 -
21/12:00pm 28.9 - - - - E 32 39 17 21 1011.9 1011.9 -
21/11:30am 28.8 - - - - E 35 41 19 22 1012.3 1012.3 -
21/11:00am 28.9 - - - - E 37 44 20 24 1012.5 1012.5 -
21/10:30am 28.9 - - - - E 39 46 21 25 1012.8 1012.8 -
21/10:00am 28.9 - - - - E 41 46 22 25 1013.1 1013.1 -
21/09:30am 28.8 - - - - E 41 50 22 27 1013.3 1013.3 -
21/09:00am 28.7 - - - - E 39 46 21 25 1013.5 1013.5 -
21/08:30am 28.9 - - - - ESE 41 54 22 29 1013.4 1013.4 -
21/08:00am 29.0 - - - - E 37 43 20 23 1013.5 1013.5 -
21/07:58am 28.8 - - - - E 37 44 20 24 1013.5 1013.5 -
21/07:30am 28.9 - - - - ESE 39 46 21 25 1012.9 1012.9 -
21/07:00am 28.8 - - - - ESE 41 50 22 27 1012.7 1012.7 -
21/06:30am 28.7 - - - - SE 39 46 21 25 1012.4 1012.4 -
21/06:00am 28.7 - - - - SE 37 44 20 24 1012.3 1012.3 -
21/05:30am 28.8 - - - - SSE 33 41 18 22 1012.1 1012.1 -
21/05:00am 28.7 - - - - SSE 30 35 16 19 1011.8 1011.8 -
21/04:30am 28.3 - - - - S 22 28 12 15 1011.7 1011.7 -
21/04:00am 27.9 - - - - S 24 30 13 16 1011.6 1011.6 -
21/03:30am 28.1 - - - - S 24 28 13 15 1011.6 1011.6 -
21/03:00am 27.5 - - - - S 22 30 12 16 1011.4 1011.4 -
21/02:30am 27.5 - - - - SSW 24 30 13 16 1011.3 1011.3 -
21/02:00am 27.4 - - - - WSW 19 22 10 12 1010.5 1010.5 -
21/01:30am 27.4 - - - - WSW 20 26 11 14 1010.7 1010.7 -
21/01:00am 27.6 - - - - SW 28 33 15 18 1010.6 1010.6 -
21/12:30am 27.7 - - - - SW 30 33 16 18 1010.7 1010.7 -
21/12:00am 27.7 - - - - WSW 28 32 15 17 1011.0 1011.0 -
 
Date/Time
WST
Temp
°C
App
Temp
°C
Dew
Point
°C
Rel
Hum
%
Delta-T
°C
Wind Press
QNH
hPa
Press
MSL
hPa
Rain since
9am
mm
Dir  Spd
km/h
Gust
km/h
Spd
kts
Gust
kts
20/11:30pm 27.4 - - - - WSW 20 24 11 13 1011.5 1011.5 -
20/11:00pm 27.5 - - - - WSW 24 28 13 15 1011.7 1011.7 -
20/10:30pm 27.4 - - - - WSW 24 28 13 15 1012.0 1012.0 -
20/10:00pm 27.3 - - - - WSW 22 26 12 14 1012.2 1012.2 -
20/09:30pm 27.3 - - - - WSW 22 24 12 13 1012.4 1012.4 -
20/09:00pm 27.2 - - - - WSW 20 24 11 13 1012.7 1012.7 -
20/08:30pm 27.3 - - - - WSW 24 26 13 14 1012.6 1012.6 -
20/08:00pm 27.2 - - - - WSW 19 20 10 11 1012.7 1012.7 -
20/07:30pm 27.2 - - - - SW 17 19 9 10 1012.7 1012.7 -
20/07:00pm 27.5 - - - - SW 17 19 9 10 1012.4 1012.4 -
20/06:30pm 27.5 - - - - SSW 15 17 8 9 1012.3 1012.3 -
20/06:00pm 27.3 - - - - SSW 15 17 8 9 1012.0 1012.0 -
20/05:30pm 27.4 - - - - SSW 15 17 8 9 1011.9 1011.9 -
20/05:00pm 27.3 - - - - S 11 13 6 7 1012.0 1012.0 -
20/04:30pm 27.6 - - - - S 9 9 5 5 1012.1 1012.1 -
20/04:00pm 27.6 - - - - SSE 9 11 5 6 1012.1 1012.1 -
20/03:30pm 27.7 - - - - S 9 13 5 7 1012.2 1012.2 -
20/03:00pm 27.3 - - - - SSE 13 15 7 8 1012.5 1012.5 -
20/02:30pm 27.2 - - - - SSE 15 17 8 9 1012.8 1012.8 -
20/02:00pm 27.3 - - - - SE 17 20 9 11 1013.0 1013.0 -
20/01:30pm 27.1 - - - - SE 22 26 12 14 1013.6 1013.6 -
20/01:00pm 27.2 - - - - SE 20 24 11 13 1013.8 1013.8 -
20/12:30pm 27.3 - - - - SE 20 22 11 12 1013.8 1013.8 -
20/12:00pm 27.4 - - - - SSE 15 20 8 11 1014.0 1014.0 -
20/11:30am 27.4 - - - - SSW 17 20 9 11 1013.7 1013.7 -
20/11:00am 27.5 - - - - S 19 22 10 12 1013.9 1013.9 -
20/10:30am 27.1 - - - - SSW 20 24 11 13 1013.9 1013.9 -
20/10:00am 27.0 - - - - SSW 20 26 11 14 1014.0 1014.0 -
20/09:30am 27.4 - - - - SSW 19 22 10 12 1014.2 1014.2 -
20/09:00am 27.0 - - - - SSW 20 24 11 13 1014.3 1014.3 -
20/08:30am 26.7 - - - - SSW 19 24 10 13 1014.4 1014.4 -
20/08:00am 26.6 - - - - SSW 19 22 10 12 1014.4 1014.4 -
20/07:30am 26.7 - - - - SW 19 20 10 11 1014.4 1014.4 -
20/07:00am 26.5 - - - - SW 17 20 9 11 1014.1 1014.1 -
20/06:30am 26.4 - - - - SW 17 19 9 10 1013.9 1013.9 -
20/06:00am 26.4 - - - - WSW 11 13 6 7 1013.6 1013.6 -
20/05:30am 26.3 - - - - WSW 13 15 7 8 1013.5 1013.5 -
20/05:00am 26.3 - - - - WSW 13 15 7 8 1013.1 1013.1 -
20/04:30am 26.3 - - - - WSW 15 17 8 9 1012.8 1012.8 -
20/04:00am 26.3 - - - - W 15 17 8 9 1012.5 1012.5 -
20/03:30am 26.4 - - - - W 15 17 8 9 1012.6 1012.6 -
20/03:00am 26.3 - - - - W 13 15 7 8 1012.5 1012.5 -
20/02:30am 26.2 - - - - W 13 15 7 8 1012.4 1012.4 -
20/02:00am 26.2 - - - - W 13 15 7 8 1012.6 1012.6 -
20/01:30am 26.1 - - - - WSW 11 13 6 7 1012.8 1012.8 -
20/01:00am 26.1 - - - - WSW 9 11 5 6 1013.2 1013.2 -
20/12:30am 26.2 - - - - SW 7 9 4 5 1013.7 1013.7 -
20/12:00am 26.3 - - - - CALM 0 0 0 0 1014.2 1014.2 -
 
Date/Time
WST
Temp
°C
App
Temp
°C
Dew
Point
°C
Rel
Hum
%
Delta-T
°C
Wind Press
QNH
hPa
Press
MSL
hPa
Rain since
9am
mm
Dir  Spd
km/h
Gust
km/h
Spd
kts
Gust
kts
19/11:30pm 26.3 - - - - CALM 0 6 0 3 1014.4 1014.4 -
19/11:00pm 26.4 - - - - SSW 7 7 4 4 1014.8 1014.8 -
19/10:30pm 26.4 - - - - SSW 6 6 3 3 1015.0 1015.0 -
19/10:00pm 26.5 - - - - CALM 0 0 0 0 1015.0 1015.0 -
19/09:30pm 26.6 - - - - ENE 2 6 1 3 1015.3 1015.3 -
19/09:00pm 26.8 - - - - ENE 6 7 3 4 1015.4 1015.4 -
19/08:30pm 26.9 - - - - ENE 6 7 3 4 1015.2 1015.2 -
19/08:00pm 26.9 - - - - ENE 7 9 4 5 1015.0 1015.0 -
19/07:30pm 27.1 - - - - NE 11 13 6 7 1014.6 1014.6 -
19/07:00pm 27.0 - - - - NE 11 13 6 7 1014.1 1014.1 -
19/06:30pm 27.0 - - - - NE 11 15 6 8 1013.7 1013.7 -
19/06:00pm 27.3 - - - - NE 11 13 6 7 1013.5 1013.5 -
19/05:30pm 27.3 - - - - ENE 13 15 7 8 1013.1 1013.1 -
19/05:00pm 27.3 - - - - ENE 15 15 8 8 1012.9 1012.9 -

Other formats

Comma delimited format used in spreadsheet applications
http://www.bom.gov.au/fwo/IDW60801/IDW60801.94207.axf

JavaScript Object Notation format (JSON) in row-major order
http://www.bom.gov.au/fwo/IDW60801/IDW60801.94207.json

Data quality

Most of these data are generated automatically and are frequently updated. Quality checks on data are not normally performed. It is possible for incorrect values to appear. Refer to information at About Latest Weather Observations and please check the disclaimer before using these data.